Time;durP1;ratioP1;P1;durP2;ratioP2;P2;SDS_P1;SDS_P2;PMS_P1;PMS_P2;Temp;Humidity;BMP_temperature;BMP_pressure;BME280_temperature;BME280_humidity;BME280_pressure;Samples;Min_cycle;Max_cycle;Signal;HPM_P1;HPM_P2
2024/02/21 00:02:29;;;;;;;13.18;7.50;;;10.20;96.70;;;;;;4910230;29;20060;-67
2024/02/21 00:05:16;;;;;;;11.20;7.95;;;10.20;96.70;;;;;;4913159;29;20071;-67
2024/02/21 00:08:10;;;;;;;12.38;7.82;;;10.20;96.70;;;;;;4930346;29;20055;-67
2024/02/21 00:10:42;;;;;;;11.23;7.75;;;10.10;96.70;;;;;;4912861;29;20083;-67
2024/02/21 00:13:11;;;;;;;11.75;7.78;;;10.10;96.70;;;;;;4928075;29;20688;-67
2024/02/21 00:15:44;;;;;;;10.25;6.53;;;10.10;96.70;;;;;;4927186;29;20044;-67
2024/02/21 00:18:13;;;;;;;10.27;7.43;;;10.10;96.70;;;;;;4917047;29;20075;-67
2024/02/21 00:20:43;;;;;;;11.68;7.50;;;10.10;96.70;;;;;;4929691;29;20055;-67
2024/02/21 00:23:11;;;;;;;13.93;7.40;;;10.10;96.70;;;;;;4910419;29;20083;-67
2024/02/21 00:25:42;;;;;;;10.75;7.22;;;10.10;96.70;;;;;;4922623;29;20051;-67
2024/02/21 00:28:12;;;;;;;9.63;6.45;;;10.10;96.70;;;;;;4907392;29;20083;-67
2024/02/21 00:30:44;;;;;;;10.20;6.47;;;10.20;96.70;;;;;;4921290;29;20047;-67
2024/02/21 00:33:13;;;;;;;8.50;5.65;;;10.10;96.70;;;;;;4942468;29;20052;-67
2024/02/21 00:35:42;;;;;;;9.77;6.80;;;10.10;96.70;;;;;;4926280;29;20147;-67
2024/02/21 00:38:14;;;;;;;8.77;6.25;;;10.00;96.70;;;;;;4911478;29;20074;-67
2024/02/21 00:40:44;;;;;;;8.40;6.30;;;9.80;96.70;;;;;;4911991;29;20115;-67
2024/02/21 00:43:13;;;;;;;8.68;6.18;;;9.80;96.70;;;;;;4923779;29;20055;-67
2024/02/21 00:45:44;;;;;;;9.07;5.80;;;9.70;96.70;;;;;;4925972;29;20085;-67
2024/02/21 00:48:15;;;;;;;8.27;5.18;;;9.60;96.70;;;;;;4928239;29;20062;-67
2024/02/21 00:50:45;;;;;;;7.22;5.28;;;9.60;96.70;;;;;;4919221;29;20047;-67
2024/02/21 00:53:16;;;;;;;7.57;5.30;;;9.50;96.70;;;;;;4916536;29;20497;-67
2024/02/21 00:55:45;;;;;;;8.10;5.82;;;9.40;96.70;;;;;;4932193;29;20064;-67
2024/02/21 00:58:15;;;;;;;7.55;5.30;;;9.50;96.70;;;;;;4927084;29;20593;-67
2024/02/21 01:00:47;;;;;;;6.25;4.60;;;9.50;96.70;;;;;;4924819;29;20055;-67
2024/02/21 01:03:16;;;;;;;8.07;5.18;;;9.60;96.70;;;;;;4927630;29;20051;-67
2024/02/21 01:05:47;;;;;;;8.32;5.25;;;9.50;96.70;;;;;;4926109;29;20118;-67
2024/02/21 01:08:17;;;;;;;8.43;5.43;;;9.60;96.70;;;;;;4922435;29;20059;-66
2024/02/21 01:10:48;;;;;;;6.63;5.30;;;9.60;96.70;;;;;;4928564;29;20048;-67
2024/02/21 01:13:19;;;;;;;7.35;5.53;;;9.70;96.70;;;;;;4912718;29;20059;-67
2024/02/21 01:15:50;;;;;;;9.10;5.57;;;9.60;96.70;;;;;;4912232;29;20052;-67
2024/02/21 01:18:18;;;;;;;9.68;5.72;;;9.60;96.70;;;;;;4928021;29;20055;-67
2024/02/21 01:20:48;;;;;;;10.35;5.82;;;9.50;96.70;;;;;;4912623;29;20441;-66
2024/02/21 01:23:18;;;;;;;7.65;5.35;;;9.50;96.70;;;;;;4927496;29;20055;-67
2024/02/21 01:25:48;;;;;;;7.90;5.30;;;9.50;96.70;;;;;;4912553;29;20063;-66
2024/02/21 01:28:18;;;;;;;8.93;5.32;;;9.50;96.70;;;;;;4912082;29;20066;-67
2024/02/21 01:30:49;;;;;;;6.72;5.00;;;9.40;96.70;;;;;;4925476;29;20071;-67
2024/02/21 01:33:21;;;;;;;7.97;5.80;;;9.40;96.70;;;;;;4939254;29;20418;-67
2024/02/21 01:35:50;;;;;;;10.02;5.90;;;9.30;96.70;;;;;;4909687;29;20048;-66
2024/02/21 01:38:21;;;;;;;8.32;5.93;;;9.40;96.70;;;;;;4924185;29;20063;-66
2024/02/21 01:40:50;;;;;;;8.23;5.88;;;9.40;96.70;;;;;;4909075;29;20131;-66
2024/02/21 01:43:21;;;;;;;7.00;5.30;;;9.40;96.70;;;;;;4915615;29;20055;-67
2024/02/21 01:45:53;;;;;;;7.65;5.57;;;9.40;96.70;;;;;;4911802;29;20059;-67
2024/02/21 01:48:25;;;;;;;7.95;6.43;;;9.40;96.70;;;;;;4924424;29;20091;-66
2024/02/21 01:50:56;;;;;;;9.35;6.57;;;9.40;96.70;;;;;;4925116;29;20127;-66
2024/02/21 01:53:30;;;;;;;9.15;6.50;;;9.30;96.70;;;;;;4923143;29;20603;-67
2024/02/21 01:56:04;;;;;;;11.52;6.53;;;9.30;96.70;;;;;;4900377;29;20421;-66
2024/02/21 01:58:37;;;;;;;9.23;6.32;;;9.30;96.70;;;;;;4920041;29;20111;-66
2024/02/21 02:01:08;;;;;;;10.75;6.15;;;9.30;96.70;;;;;;4924910;29;20063;-67
2024/02/21 02:03:38;;;;;;;8.38;5.88;;;9.30;96.70;;;;;;4931702;29;20060;-67
2024/02/21 02:06:08;;;;;;;7.90;5.45;;;9.20;96.70;;;;;;4922030;29;20056;-66
2024/02/21 02:08:40;;;;;;;8.07;5.72;;;9.20;96.70;;;;;;4940085;29;20071;-66
2024/02/21 02:11:10;;;;;;;10.80;6.78;;;9.20;96.70;;;;;;4921027;29;21249;-67
2024/02/21 02:13:40;;;;;;;7.85;5.65;;;9.20;96.70;;;;;;4916581;29;20055;-66
2024/02/21 02:16:12;;;;;;;9.98;5.60;;;9.20;96.70;;;;;;4914545;29;20357;-66
2024/02/21 02:18:42;;;;;;;8.18;5.30;;;9.20;96.70;;;;;;4918365;29;20135;-66
2024/02/21 02:21:22;;;;;;;7.72;5.40;;;9.00;96.70;;;;;;4899841;29;20051;-66
2024/02/21 02:23:53;;;;;;;9.88;5.38;;;9.00;96.70;;;;;;4902101;29;20059;-67
2024/02/21 02:26:22;;;;;;;6.15;4.70;;;9.00;96.70;;;;;;4925345;29;20074;-67
2024/02/21 02:28:50;;;;;;;7.85;5.88;;;9.00;96.70;;;;;;4898622;29;20052;-67
2024/02/21 02:31:19;;;;;;;7.05;5.65;;;9.00;96.70;;;;;;4924334;29;20063;-66
2024/02/21 02:33:50;;;;;;;8.00;5.60;;;9.10;96.70;;;;;;4907828;29;20052;-67
2024/02/21 02:36:19;;;;;;;7.80;5.60;;;9.00;96.70;;;;;;4903525;29;20066;-66
2024/02/21 02:38:48;;;;;;;7.70;5.65;;;9.00;96.70;;;;;;4901313;29;20059;-67
2024/02/21 02:41:20;;;;;;;8.50;5.75;;;8.90;96.70;;;;;;4918564;29;20194;-67
2024/02/21 02:43:49;;;;;;;7.07;5.82;;;8.90;96.70;;;;;;4931226;29;20051;-66
2024/02/21 02:46:19;;;;;;;7.72;4.57;;;8.90;96.70;;;;;;4931762;29;20059;-67
2024/02/21 02:48:48;;;;;;;6.85;5.10;;;8.90;96.70;;;;;;4917078;29;20059;-67
2024/02/21 02:51:18;;;;;;;7.05;5.07;;;8.80;96.70;;;;;;4931930;29;20055;-67
2024/02/21 02:53:48;;;;;;;6.53;5.15;;;8.80;96.70;;;;;;4931234;29;20154;-67
2024/02/21 02:56:16;;;;;;;8.32;5.93;;;8.80;96.70;;;;;;4914612;29;20483;-67
2024/02/21 02:58:49;;;;;;;9.25;5.78;;;8.80;96.70;;;;;;4932059;29;20057;-67
2024/02/21 03:01:18;;;;;;;7.00;5.35;;;8.70;96.70;;;;;;4929605;29;20071;-66
2024/02/21 03:03:47;;;;;;;9.75;6.20;;;8.60;96.70;;;;;;4926447;29;20043;-67
2024/02/21 03:06:16;;;;;;;6.72;5.47;;;8.60;96.70;;;;;;4925768;29;20062;-67
2024/02/21 03:08:44;;;;;;;7.32;5.45;;;8.70;96.70;;;;;;4928191;29;20048;-66
2024/02/21 03:11:13;;;;;;;8.07;5.70;;;8.70;96.70;;;;;;4928068;29;20057;-67
2024/02/21 03:13:43;;;;;;;7.75;5.70;;;8.70;96.70;;;;;;4926951;29;20060;-67
2024/02/21 03:16:16;;;;;;;8.82;5.63;;;8.70;96.70;;;;;;4910930;29;20047;-66
2024/02/21 03:18:45;;;;;;;9.18;6.60;;;8.60;96.70;;;;;;4922484;29;20060;-67
2024/02/21 03:21:14;;;;;;;7.32;5.72;;;8.60;96.70;;;;;;4928913;29;20091;-66
2024/02/21 03:23:43;;;;;;;7.95;5.22;;;8.50;96.70;;;;;;4929750;29;20075;-66
2024/02/21 03:26:16;;;;;;;7.78;5.15;;;8.40;96.70;;;;;;4924451;29;20794;-66
2024/02/21 03:28:46;;;;;;;7.00;4.75;;;8.40;96.70;;;;;;4910642;29;20062;-67
2024/02/21 03:31:16;;;;;;;7.38;4.95;;;8.40;96.70;;;;;;4906883;29;20044;-66
2024/02/21 03:33:47;;;;;;;9.40;5.00;;;8.40;96.70;;;;;;4926164;29;20112;-66
2024/02/21 03:36:18;;;;;;;7.60;4.70;;;8.40;96.70;;;;;;4926398;29;20048;-66
2024/02/21 03:38:48;;;;;;;6.28;4.45;;;8.40;96.70;;;;;;4925137;29;20095;-66
2024/02/21 03:41:16;;;;;;;5.88;4.07;;;8.40;96.70;;;;;;4926636;29;20075;-67
2024/02/21 03:43:50;;;;;;;6.18;3.97;;;8.40;96.70;;;;;;4928670;29;20056;-67
2024/02/21 03:46:25;;;;;;;6.40;3.78;;;8.40;96.70;;;;;;4916095;29;20079;-67
2024/02/21 03:48:54;;;;;;;4.97;3.47;;;8.40;96.70;;;;;;4926376;29;20166;-66
2024/02/21 03:51:24;;;;;;;6.40;4.25;;;8.30;96.70;;;;;;4927191;29;20044;-67
2024/02/21 03:53:54;;;;;;;4.32;3.40;;;8.30;96.70;;;;;;4907502;29;20044;-66
2024/02/21 03:56:23;;;;;;;5.10;3.70;;;8.30;96.70;;;;;;4918454;29;20048;-67
2024/02/21 03:58:51;;;;;;;7.63;3.70;;;8.40;96.70;;;;;;4923446;29;20047;-66
2024/02/21 04:01:25;;;;;;;4.90;3.63;;;8.40;96.70;;;;;;4914970;29;20054;-67
2024/02/21 04:03:57;;;;;;;5.20;3.50;;;8.30;96.70;;;;;;4912756;29;20072;-67
2024/02/21 04:06:27;;;;;;;4.45;3.40;;;8.30;96.70;;;;;;4925513;29;20052;-66
2024/02/21 04:08:57;;;;;;;5.97;4.05;;;8.30;96.70;;;;;;4919035;29;20111;-66
2024/02/21 04:11:26;;;;;;;4.38;3.35;;;8.30;96.70;;;;;;4927361;29;20060;-66
2024/02/21 04:13:55;;;;;;;5.63;3.80;;;8.30;96.70;;;;;;4924566;29;20058;-66
2024/02/21 04:16:26;;;;;;;6.32;4.07;;;8.30;96.70;;;;;;4928075;29;20146;-66
2024/02/21 04:18:57;;;;;;;5.28;4.03;;;8.30;96.70;;;;;;4928588;28;20142;-66
2024/02/21 04:21:26;;;;;;;6.88;3.85;;;8.30;96.70;;;;;;4906003;29;20070;-67
2024/02/21 04:23:56;;;;;;;4.55;3.72;;;8.30;96.70;;;;;;4911877;29;20067;-66
2024/02/21 04:26:26;;;;;;;6.47;3.88;;;8.30;96.70;;;;;;4907654;29;20425;-66
2024/02/21 04:28:56;;;;;;;7.18;3.65;;;8.30;96.70;;;;;;4912461;29;20063;-66
2024/02/21 04:31:29;;;;;;;5.05;3.72;;;8.20;96.70;;;;;;4919151;29;20052;-66
2024/02/21 04:33:59;;;;;;;6.07;4.03;;;8.20;96.70;;;;;;4924477;29;20051;-66
2024/02/21 04:36:29;;;;;;;7.68;4.22;;;8.20;96.70;;;;;;4912903;29;20111;-66
2024/02/21 04:38:58;;;;;;;4.80;3.60;;;8.20;96.70;;;;;;4927887;29;20146;-66
2024/02/21 04:41:26;;;;;;;5.47;3.90;;;8.20;96.70;;;;;;4925131;29;20518;-66
2024/02/21 04:43:59;;;;;;;7.68;3.97;;;8.10;96.70;;;;;;4907418;29;20139;-67
2024/02/21 04:46:29;;;;;;;5.22;3.63;;;8.10;96.70;;;;;;4905111;29;20154;-66
2024/02/21 04:48:59;;;;;;;5.97;4.00;;;8.10;96.70;;;;;;4923436;29;20052;-67
2024/02/21 04:51:31;;;;;;;5.95;3.83;;;8.10;96.70;;;;;;4924262;29;20519;-66
2024/02/21 04:54:03;;;;;;;6.30;4.07;;;8.10;96.70;;;;;;4921491;29;20060;-67
2024/02/21 04:56:34;;;;;;;7.10;4.38;;;8.10;96.70;;;;;;4922050;29;20058;-67
2024/02/21 04:59:04;;;;;;;4.82;4.15;;;8.10;96.70;;;;;;4928423;29;20054;-67
2024/02/21 05:01:35;;;;;;;6.50;4.53;;;8.00;96.70;;;;;;4914068;29;20058;-67
2024/02/21 05:04:07;;;;;;;6.53;4.03;;;8.00;96.70;;;;;;4931900;29;20054;-66
2024/02/21 05:06:50;;;;;;;5.88;4.15;;;7.90;96.70;;;;;;4911568;29;20476;-66
2024/02/21 05:09:19;;;;;;;4.80;3.35;;;7.80;96.70;;;;;;4932840;29;20051;-66
2024/02/21 05:11:47;;;;;;;6.13;3.85;;;7.80;96.70;;;;;;4930018;29;20115;-66
2024/02/21 05:14:18;;;;;;;5.65;4.00;;;7.80;96.70;;;;;;4921662;29;20107;-66
2024/02/21 05:16:49;;;;;;;5.43;3.92;;;7.90;96.70;;;;;;4917180;29;20512;-66
2024/02/21 05:19:19;;;;;;;5.47;3.85;;;7.90;96.70;;;;;;4921912;29;20059;-66
2024/02/21 05:21:48;;;;;;;6.72;4.15;;;7.80;96.70;;;;;;4908951;29;20099;-66
2024/02/21 05:24:17;;;;;;;6.97;4.22;;;7.80;96.70;;;;;;4907815;29;20058;-66
2024/02/21 05:26:45;;;;;;;5.82;4.40;;;7.90;96.70;;;;;;4911882;29;20702;-66
2024/02/21 05:29:14;;;;;;;7.53;4.53;;;7.80;96.70;;;;;;4927441;29;20058;-66
2024/02/21 05:31:58;;;;;;;7.05;4.03;;;7.80;96.70;;;;;;4919993;29;20074;-66
2024/02/21 05:34:28;;;;;;;6.63;4.30;;;7.70;96.70;;;;;;4923735;29;20055;-66
2024/02/21 05:36:59;;;;;;;6.43;4.38;;;7.70;96.70;;;;;;4922212;29;20060;-66
2024/02/21 05:39:29;;;;;;;6.78;4.10;;;7.60;96.70;;;;;;4924687;29;20048;-66
2024/02/21 05:41:59;;;;;;;7.97;3.90;;;7.60;96.70;;;;;;4924866;29;20055;-66
2024/02/21 05:44:31;;;;;;;4.90;3.47;;;7.50;96.70;;;;;;4923091;29;20095;-66
2024/02/21 05:47:03;;;;;;;5.82;4.18;;;7.40;96.70;;;;;;4916625;29;20048;-66
2024/02/21 05:49:32;;;;;;;5.05;3.60;;;7.40;96.70;;;;;;4929417;29;20052;-66
2024/02/21 05:52:06;;;;;;;4.35;3.00;;;7.40;96.70;;;;;;4930131;29;20071;-66
2024/02/21 05:54:38;;;;;;;5.22;3.47;;;7.30;96.70;;;;;;4929898;29;20520;-66
2024/02/21 05:57:10;;;;;;;5.90;3.95;;;7.30;96.70;;;;;;4914970;29;20055;-66
2024/02/21 05:59:43;;;;;;;6.63;3.90;;;7.30;96.70;;;;;;4907090;29;20068;-66
2024/02/21 06:02:13;;;;;;;5.60;3.58;;;7.30;96.70;;;;;;4924644;29;20071;-66
2024/02/21 06:04:44;;;;;;;7.97;3.83;;;7.30;96.70;;;;;;4923235;29;20529;-66
2024/02/21 06:07:13;;;;;;;6.70;3.90;;;7.30;96.70;;;;;;4929908;29;20082;-66
2024/02/21 06:09:41;;;;;;;5.35;3.65;;;7.30;96.70;;;;;;4921888;29;20059;-66
2024/02/21 06:12:10;;;;;;;6.38;3.60;;;7.20;96.70;;;;;;4914769;29;20054;-66
2024/02/21 06:14:40;;;;;;;6.93;4.10;;;7.20;96.70;;;;;;4927634;29;20059;-66
2024/02/21 06:17:08;;;;;;;7.05;4.40;;;7.30;96.70;;;;;;4930464;29;20154;-66
2024/02/21 06:19:45;;;;;;;6.97;4.18;;;7.30;96.70;;;;;;4925527;29;20073;-66
2024/02/21 06:22:13;;;;;;;6.65;4.47;;;7.40;96.70;;;;;;4913990;29;20052;-66
2024/02/21 06:24:45;;;;;;;7.13;4.47;;;7.40;96.70;;;;;;4912193;29;20147;-64
2024/02/21 06:27:16;;;;;;;8.32;4.82;;;7.50;96.70;;;;;;4925278;29;20620;-66
2024/02/21 06:29:47;;;;;;;11.05;4.40;;;7.50;96.70;;;;;;4929054;29;20063;-66
2024/02/21 06:32:15;;;;;;;10.40;5.22;;;7.40;96.70;;;;;;4929309;29;20052;-66
2024/02/21 06:34:46;;;;;;;6.30;4.53;;;7.50;96.70;;;;;;4906043;29;20120;-66
2024/02/21 06:37:14;;;;;;;7.32;4.80;;;7.60;96.70;;;;;;4914720;29;20098;-65
2024/02/21 06:39:43;;;;;;;7.32;4.30;;;7.50;96.70;;;;;;4929094;29;20075;-66
2024/02/21 06:42:12;;;;;;;6.47;4.38;;;7.50;96.70;;;;;;4926678;29;20052;-66
2024/02/21 06:44:41;;;;;;;6.50;4.35;;;7.50;96.70;;;;;;4941907;29;20142;-66
2024/02/21 06:47:12;;;;;;;7.13;4.40;;;7.50;96.70;;;;;;4943853;29;20102;-66
2024/02/21 06:49:43;;;;;;;8.07;5.28;;;7.40;96.70;;;;;;4913892;29;20513;-65
2024/02/21 06:52:17;;;;;;;6.53;4.57;;;7.40;96.70;;;;;;4927617;29;20052;-66
2024/02/21 06:54:47;;;;;;;5.75;4.38;;;7.50;96.70;;;;;;4926287;29;20048;-66
2024/02/21 06:57:16;;;;;;;7.53;4.35;;;7.50;96.70;;;;;;4918078;29;20055;-65
2024/02/21 06:59:46;;;;;;;7.97;4.20;;;7.50;96.70;;;;;;4928445;29;20070;-66
2024/02/21 07:02:17;;;;;;;8.57;4.15;;;7.50;96.70;;;;;;4928103;29;20060;-65
2024/02/21 07:04:48;;;;;;;6.93;5.35;;;7.50;96.70;;;;;;4926499;29;20048;-65
2024/02/21 07:07:21;;;;;;;7.90;4.95;;;7.50;96.70;;;;;;4923496;29;20059;-65
2024/02/21 07:09:53;;;;;;;9.20;4.82;;;7.60;96.70;;;;;;4928996;29;20063;-66
2024/02/21 07:12:26;;;;;;;8.40;4.85;;;7.60;96.70;;;;;;4927165;29;20122;-65
2024/02/21 07:14:56;;;;;;;9.23;5.53;;;7.60;96.70;;;;;;4929296;29;20063;-63
2024/02/21 07:17:25;;;;;;;10.75;4.85;;;7.70;96.70;;;;;;4927552;29;20064;-63
2024/02/21 07:19:56;;;;;;;8.98;4.60;;;7.70;96.70;;;;;;4922570;29;20059;-64
2024/02/21 07:22:29;;;;;;;6.32;4.35;;;7.70;96.70;;;;;;4914147;29;20048;-63
2024/02/21 07:24:59;;;;;;;9.13;4.65;;;7.70;96.70;;;;;;4912891;29;20052;-65
2024/02/21 07:27:34;;;;;;;5.05;3.88;;;7.70;96.70;;;;;;4930246;29;20058;-62
2024/02/21 07:30:04;;;;;;;8.20;4.60;;;7.70;96.70;;;;;;4930005;29;20044;-63
2024/02/21 07:32:33;;;;;;;10.18;4.40;;;7.80;96.70;;;;;;4923899;29;20059;-63
2024/02/21 07:35:03;;;;;;;6.97;4.13;;;7.80;96.70;;;;;;4913511;29;20062;-63
2024/02/21 07:37:35;;;;;;;5.38;4.40;;;7.80;96.70;;;;;;4931075;29;20110;-63
2024/02/21 07:40:04;;;;;;;8.13;4.93;;;7.90;96.70;;;;;;4925440;29;20063;-63
2024/02/21 07:42:32;;;;;;;7.55;4.22;;;7.90;96.70;;;;;;5195054;23;20060;-70
2024/02/21 07:45:03;;;;;;;5.18;4.35;;;8.00;96.70;;;;;;4928344;29;20063;-69
2024/02/21 07:47:31;;;;;;;6.75;4.60;;;8.00;96.70;;;;;;4912708;29;20051;-69
2024/02/21 07:50:00;;;;;;;5.63;4.45;;;8.10;96.70;;;;;;4927033;29;20048;-69
2024/02/21 07:52:28;;;;;;;9.48;4.68;;;8.20;96.70;;;;;;4927318;29;20556;-70
2024/02/21 07:55:02;;;;;;;7.78;4.95;;;8.20;96.70;;;;;;4927272;29;20060;-69
2024/02/21 07:57:31;;;;;;;8.35;4.90;;;8.20;96.70;;;;;;4942495;28;20056;-69
2024/02/21 08:00:01;;;;;;;7.22;4.75;;;8.40;96.70;;;;;;4943478;29;20048;-69
2024/02/21 08:02:38;;;;;;;9.65;4.28;;;8.50;96.70;;;;;;4928135;29;20063;-69
2024/02/21 08:05:08;;;;;;;7.05;4.57;;;8.50;96.70;;;;;;4923606;29;20115;-70
2024/02/21 08:07:38;;;;;;;6.30;4.15;;;8.60;96.70;;;;;;4928788;29;20052;-69
2024/02/21 08:10:12;;;;;;;8.93;4.40;;;8.80;96.70;;;;;;4908447;29;20239;-70
2024/02/21 08:12:42;;;;;;;8.82;4.95;;;8.90;96.70;;;;;;4896495;29;20606;-69
2024/02/21 08:15:12;;;;;;;8.70;4.70;;;9.00;96.70;;;;;;4898978;29;20052;-69
2024/02/21 08:17:43;;;;;;;5.35;4.50;;;9.00;96.70;;;;;;4925217;29;20091;-69
2024/02/21 08:20:12;;;;;;;6.68;4.40;;;9.00;96.70;;;;;;4894800;29;20090;-70
2024/02/21 08:22:46;;;;;;;6.43;4.50;;;9.20;96.70;;;;;;4907308;29;20063;-70
2024/02/21 08:25:18;;;;;;;6.10;4.45;;;9.30;96.70;;;;;;4893270;29;20052;-69
2024/02/21 08:27:47;;;;;;;5.03;4.03;;;9.30;96.70;;;;;;4892348;29;20528;-69
2024/02/21 08:30:17;;;;;;;7.07;4.45;;;9.40;96.70;;;;;;4891640;29;20473;-69
2024/02/21 08:32:46;;;;;;;5.85;4.32;;;9.50;96.70;;;;;;4906789;29;20071;-69
2024/02/21 08:35:22;;;;;;;5.32;4.50;;;9.60;96.70;;;;;;4906213;29;20255;-70
2024/02/21 08:37:52;;;;;;;6.88;3.95;;;9.70;96.70;;;;;;4909438;29;20060;-69
2024/02/21 08:40:23;;;;;;;6.82;4.35;;;9.80;96.70;;;;;;4896484;29;20060;-69
2024/02/21 08:42:53;;;;;;;5.55;3.95;;;9.80;96.70;;;;;;4944307;28;20083;-70
2024/02/21 08:45:23;;;;;;;5.70;4.28;;;9.80;96.70;;;;;;4929320;29;20050;-69
2024/02/21 08:47:52;;;;;;;4.70;4.03;;;9.90;96.70;;;;;;4929526;29;20159;-70
2024/02/21 08:50:26;;;;;;;4.88;3.58;;;9.90;96.70;;;;;;4930495;29;20055;-69
2024/02/21 08:52:57;;;;;;;5.95;3.90;;;10.00;96.70;;;;;;4929295;29;20048;-70
2024/02/21 08:55:28;;;;;;;4.65;3.95;;;10.00;96.70;;;;;;4943775;28;20911;-70
2024/02/21 08:57:59;;;;;;;6.20;4.07;;;10.00;96.70;;;;;;4928528;29;21025;-69
2024/02/21 09:00:28;;;;;;;5.90;4.13;;;10.10;96.70;;;;;;4929320;29;20051;-69
2024/02/21 09:02:57;;;;;;;6.63;3.78;;;10.20;96.70;;;;;;4913120;29;20071;-69
2024/02/21 09:05:27;;;;;;;4.07;3.53;;;10.30;96.70;;;;;;4928930;29;20063;-70
2024/02/21 09:07:56;;;;;;;5.88;4.15;;;10.40;96.70;;;;;;4913007;29;20051;-70
2024/02/21 09:10:28;;;;;;;4.55;3.70;;;10.50;96.70;;;;;;4944390;29;20072;-69
2024/02/21 09:13:00;;;;;;;4.97;3.97;;;10.50;96.70;;;;;;4912838;29;20092;-70
2024/02/21 09:15:34;;;;;;;5.78;4.70;;;10.60;96.70;;;;;;4928217;29;20079;-70
2024/02/21 09:18:05;;;;;;;6.13;4.72;;;10.80;96.70;;;;;;4928400;29;20059;-69
2024/02/21 09:20:35;;;;;;;6.65;4.70;;;10.80;96.70;;;;;;4928883;29;20674;-69
2024/02/21 09:23:04;;;;;;;6.25;4.85;;;10.90;96.70;;;;;;4928044;29;20811;-69
2024/02/21 09:25:36;;;;;;;6.03;4.55;;;11.00;96.70;;;;;;4912725;29;20146;-70
2024/02/21 09:28:06;;;;;;;7.43;4.85;;;11.20;96.70;;;;;;4928335;29;20060;-70
2024/02/21 09:30:35;;;;;;;7.30;4.32;;;11.40;96.70;;;;;;4928029;29;20513;-70
2024/02/21 09:33:04;;;;;;;5.38;4.13;;;11.50;96.70;;;;;;4928561;29;20074;-70
2024/02/21 09:35:34;;;;;;;5.75;4.05;;;11.70;96.70;;;;;;4928511;29;20074;-70
2024/02/21 09:38:04;;;;;;;5.00;3.83;;;11.80;96.70;;;;;;4928600;29;20130;-70
2024/02/21 09:40:38;;;;;;;5.00;4.07;;;12.00;96.70;;;;;;4928339;29;20818;-68
2024/02/21 09:43:11;;;;;;;5.25;3.75;;;12.00;96.70;;;;;;4927246;29;20052;-70
2024/02/21 09:45:43;;;;;;;7.50;3.65;;;12.20;96.70;;;;;;4912610;29;20056;-70
2024/02/21 09:48:31;;;;;;;5.38;4.00;;;12.20;96.70;;;;;;4928520;29;20054;-69
2024/02/21 09:51:03;;;;;;;4.95;3.60;;;12.20;96.70;;;;;;4928281;29;20150;-69
2024/02/21 09:53:34;;;;;;;6.00;3.35;;;12.40;96.70;;;;;;4928409;29;20067;-70
2024/02/21 09:56:07;;;;;;;5.10;3.75;;;12.50;96.70;;;;;;4927966;29;20047;-70
2024/02/21 09:58:38;;;;;;;3.70;2.85;;;12.60;96.70;;;;;;4928403;29;20066;-69
2024/02/21 10:01:08;;;;;;;6.03;3.63;;;12.80;96.70;;;;;;4944015;29;20043;-70
2024/02/21 10:03:57;;;;;;;6.22;3.53;;;13.00;96.70;;;;;;4922963;29;20060;-70
2024/02/21 10:06:26;;;;;;;4.88;3.35;;;13.10;96.70;;;;;;4928204;29;20051;-70
2024/02/21 10:09:00;;;;;;;5.13;3.60;;;13.30;96.70;;;;;;4928800;29;20052;-70
2024/02/21 10:11:31;;;;;;;6.90;3.92;;;13.30;96.70;;;;;;4928261;29;20060;-70
2024/02/21 10:14:06;;;;;;;6.85;2.92;;;13.40;96.70;;;;;;4936818;29;20106;-70
2024/02/21 10:16:37;;;;;;;5.32;3.15;;;13.50;96.70;;;;;;4922844;29;20063;-70
2024/02/21 10:19:06;;;;;;;3.88;3.08;;;13.60;96.70;;;;;;4925619;29;20115;-70
2024/02/21 10:21:36;;;;;;;5.13;3.08;;;13.70;96.70;;;;;;4927000;29;20051;-71
2024/02/21 10:24:05;;;;;;;4.25;3.00;;;13.80;96.70;;;;;;4926655;29;20131;-70
2024/02/21 10:26:37;;;;;;;3.58;2.80;;;13.90;96.70;;;;;;4928052;29;20146;-70
2024/02/21 10:29:06;;;;;;;5.72;3.47;;;13.90;96.70;;;;;;4927423;29;20055;-70
2024/02/21 10:31:35;;;;;;;5.90;3.70;;;13.90;96.70;;;;;;4927476;29;20146;-70
2024/02/21 10:34:05;;;;;;;5.35;3.88;;;14.10;96.70;;;;;;4927699;29;20052;-70
2024/02/21 10:36:34;;;;;;;4.55;3.75;;;14.30;96.70;;;;;;4918632;29;20500;-71
2024/02/21 10:39:03;;;;;;;4.97;4.18;;;14.30;96.70;;;;;;4930907;29;20082;-70
2024/02/21 10:41:33;;;;;;;4.68;3.67;;;14.40;96.70;;;;;;4930704;29;20059;-70
2024/02/21 10:44:08;;;;;;;7.45;4.03;;;14.40;96.70;;;;;;4928480;29;20059;-70
2024/02/21 10:46:42;;;;;;;4.78;3.65;;;14.60;96.70;;;;;;4946214;29;20162;-70
2024/02/21 10:49:22;;;;;;;4.70;3.17;;;14.60;96.70;;;;;;4931013;29;20526;-70
2024/02/21 10:52:00;;;;;;;5.47;3.63;;;14.70;96.70;;;;;;4931040;29;20221;-70
2024/02/21 10:54:40;;;;;;;4.25;2.90;;;14.80;96.70;;;;;;4931343;29;20052;-70
2024/02/21 10:57:10;;;;;;;3.83;2.83;;;14.90;96.70;;;;;;4930667;29;20055;-70
2024/02/21 10:59:42;;;;;;;5.47;3.15;;;14.90;96.70;;;;;;4947108;29;20084;-70
2024/02/21 11:02:14;;;;;;;3.97;2.85;;;14.80;96.70;;;;;;4931372;29;20509;-70
2024/02/21 11:04:46;;;;;;;3.20;2.63;;;14.80;96.70;;;;;;4931466;29;20051;-70
2024/02/21 11:07:17;;;;;;;4.50;2.92;;;14.90;96.70;;;;;;4931204;29;20420;-70
2024/02/21 11:09:58;;;;;;;4.68;2.75;;;15.00;96.70;;;;;;4930632;29;20489;-70
2024/02/21 11:12:28;;;;;;;3.60;2.90;;;15.20;96.70;;;;;;4930415;29;20661;-69
2024/02/21 11:15:07;;;;;;;4.00;3.00;;;15.30;96.70;;;;;;4914666;29;20054;-70
2024/02/21 11:17:36;;;;;;;4.80;3.20;;;15.40;96.70;;;;;;4930678;29;20465;-70
2024/02/21 11:20:21;;;;;;;5.35;2.85;;;15.50;96.70;;;;;;4930428;29;20171;-70
2024/02/21 11:22:58;;;;;;;3.53;2.97;;;15.50;96.70;;;;;;4930543;29;20055;-71
2024/02/21 11:25:28;;;;;;;3.80;2.70;;;15.60;96.70;;;;;;4930533;29;20073;-70
2024/02/21 11:28:01;;;;;;;3.70;2.42;;;15.70;96.70;;;;;;4945824;29;20142;-70
2024/02/21 11:30:37;;;;;;;4.20;2.63;;;15.80;96.70;;;;;;4915006;29;20063;-70
2024/02/21 11:33:08;;;;;;;4.28;2.72;;;15.90;96.70;;;;;;4938001;29;20048;-70
2024/02/21 11:35:37;;;;;;;3.00;2.50;;;16.00;96.70;;;;;;4930524;29;20519;-70
2024/02/21 11:38:14;;;;;;;3.78;2.65;;;16.10;96.70;;;;;;4915103;29;20050;-70
2024/02/21 11:40:47;;;;;;;3.63;2.28;;;16.30;96.70;;;;;;4931038;29;20066;-70
2024/02/21 11:43:16;;;;;;;2.90;2.22;;;16.40;96.70;;;;;;4892026;29;20052;-70
2024/02/21 11:45:47;;;;;;;2.97;2.40;;;16.60;96.70;;;;;;4876718;29;20140;-70
2024/02/21 11:48:17;;;;;;;2.78;2.10;;;16.70;96.70;;;;;;4892494;29;20101;-70
2024/02/21 11:50:55;;;;;;;3.30;2.17;;;16.90;96.70;;;;;;4877102;29;20049;-69
2024/02/21 11:53:27;;;;;;;3.20;2.10;;;17.00;96.70;;;;;;4892416;29;20116;-70
2024/02/21 11:55:56;;;;;;;3.72;2.25;;;17.10;96.70;;;;;;4891847;29;20052;-70
2024/02/21 11:58:27;;;;;;;3.28;2.22;;;17.20;96.70;;;;;;4892298;29;20557;-69
2024/02/21 12:00:59;;;;;;;3.17;2.08;;;17.20;96.70;;;;;;4891416;29;20668;-69
2024/02/21 12:03:29;;;;;;;4.55;2.78;;;17.40;96.70;;;;;;4907464;29;20121;-71
2024/02/21 12:05:59;;;;;;;5.78;2.50;;;17.40;96.70;;;;;;4876887;29;20060;-68
2024/02/21 12:08:40;;;;;;;3.90;2.25;;;17.50;96.70;;;;;;4891471;29;20108;-71
2024/02/21 12:11:18;;;;;;;4.90;2.25;;;17.60;96.70;;;;;;4892219;29;20080;-69
2024/02/21 12:13:48;;;;;;;3.33;2.28;;;17.70;96.70;;;;;;4876235;29;20173;-68
2024/02/21 12:16:18;;;;;;;5.97;2.10;;;17.70;96.70;;;;;;4875074;29;20084;-69
2024/02/21 12:18:46;;;;;;;2.97;2.15;;;17.80;96.70;;;;;;4891217;29;20116;-69
2024/02/21 12:21:16;;;;;;;3.78;1.98;;;17.90;96.70;;;;;;4904629;29;20708;-69
2024/02/21 12:23:46;;;;;;;4.10;2.00;;;18.00;96.70;;;;;;4904287;29;20528;-69
2024/02/21 12:26:15;;;;;;;3.47;2.30;;;18.10;96.70;;;;;;4890895;29;20055;-69
2024/02/21 12:28:45;;;;;;;2.15;1.58;;;18.20;96.70;;;;;;4875401;29;20052;-69
2024/02/21 12:31:13;;;;;;;3.60;1.73;;;18.30;96.70;;;;;;4876470;29;20056;-69
2024/02/21 12:33:45;;;;;;;3.60;2.20;;;18.40;96.70;;;;;;4890526;29;20052;-69
2024/02/21 12:36:14;;;;;;;3.22;2.22;;;18.60;96.70;;;;;;4871452;29;20424;-68
2024/02/21 12:38:43;;;;;;;3.97;2.70;;;18.70;96.70;;;;;;4885344;29;20057;-69
2024/02/21 12:41:12;;;;;;;1.48;0.93;;;18.80;96.70;;;;;;4877799;29;20078;-69
2024/02/21 12:43:43;;;;;;;5.25;1.95;;;18.70;96.70;;;;;;4942146;29;20052;-69
2024/02/21 12:46:13;;;;;;;3.47;2.30;;;18.80;96.70;;;;;;4922774;29;20078;-70
2024/02/21 12:48:42;;;;;;;2.20;1.80;;;18.90;96.70;;;;;;4927644;29;20052;-69
2024/02/21 12:51:13;;;;;;;3.00;1.95;;;18.90;96.70;;;;;;4940641;29;20074;-69
2024/02/21 12:53:43;;;;;;;2.38;1.77;;;19.00;96.70;;;;;;4928753;29;20066;-69
2024/02/21 12:56:12;;;;;;;4.05;2.38;;;18.90;96.70;;;;;;4943894;28;20258;-69
2024/02/21 12:58:42;;;;;;;1.88;1.40;;;19.10;96.70;;;;;;4912473;29;20079;-69
2024/02/21 13:01:12;;;;;;;4.30;1.67;;;19.10;96.70;;;;;;4927008;29;20497;-69
2024/02/21 13:03:41;;;;;;;2.15;1.48;;;19.10;96.70;;;;;;4928205;29;20047;-69
2024/02/21 13:06:13;;;;;;;4.32;2.30;;;19.20;96.70;;;;;;4943482;29;20418;-69
2024/02/21 13:08:44;;;;;;;2.42;1.63;;;19.20;96.70;;;;;;4943376;29;20064;-69
2024/02/21 13:11:13;;;;;;;2.70;1.70;;;19.10;96.70;;;;;;4927118;29;20063;-69
2024/02/21 13:13:43;;;;;;;3.00;1.95;;;19.20;96.70;;;;;;4944024;29;20054;-68